Time;durP1;ratioP1;P1;durP2;ratioP2;P2;SDS_P1;SDS_P2;PMS_P1;PMS_P2;Temp;Humidity;BMP_temperature;BMP_pressure;BME280_temperature;BME280_humidity;BME280_pressure;Samples;Min_cycle;Max_cycle;Signal;HPM_P1;HPM_P2
2021/01/10 00:00:34;;;;;;;5.88;5.38;;;-3.50;99.90;;;;;;5092569;28;20475;-77
2021/01/10 00:03:01;;;;;;;6.00;5.60;;;-3.50;99.90;;;;;;5093733;28;20225;-76
2021/01/10 00:05:30;;;;;;;5.72;5.32;;;-3.50;99.90;;;;;;5091787;28;20519;-77
2021/01/10 00:07:57;;;;;;;6.38;5.88;;;-3.50;99.90;;;;;;5099045;27;20224;-76
2021/01/10 00:10:24;;;;;;;5.53;5.13;;;-3.50;99.90;;;;;;5102408;27;21635;-77
2021/01/10 00:12:51;;;;;;;6.88;6.10;;;-3.50;99.90;;;;;;5098809;27;20223;-77
2021/01/10 00:15:19;;;;;;;5.38;4.97;;;-3.50;99.90;;;;;;5097026;27;20221;-76
2021/01/10 00:17:48;;;;;;;5.80;5.32;;;-3.50;99.90;;;;;;5097729;27;20220;-77
2021/01/10 00:20:15;;;;;;;6.38;5.88;;;-3.50;99.90;;;;;;5094043;27;20741;-76
2021/01/10 00:22:42;;;;;;;5.68;5.28;;;-3.50;99.90;;;;;;5096148;27;20406;-76
2021/01/10 00:25:10;;;;;;;7.35;6.85;;;-3.60;99.90;;;;;;5099443;27;20939;-76
2021/01/10 00:27:38;;;;;;;6.47;5.97;;;-3.50;99.90;;;;;;5098031;27;20224;-76
2021/01/10 00:30:08;;;;;;;6.25;5.65;;;-3.50;99.90;;;;;;5071166;28;20233;-77
2021/01/10 00:32:35;;;;;;;5.40;5.00;;;-3.50;99.90;;;;;;5073387;28;20267;-77
2021/01/10 00:35:01;;;;;;;5.70;5.30;;;-3.50;99.90;;;;;;5074583;28;20222;-77
2021/01/10 00:37:28;;;;;;;6.55;6.05;;;-3.50;99.90;;;;;;5071629;28;20220;-76
2021/01/10 00:39:55;;;;;;;6.25;5.72;;;-3.50;99.90;;;;;;5073021;28;20236;-76
2021/01/10 00:42:21;;;;;;;6.18;5.78;;;-3.50;99.90;;;;;;5076681;28;20218;-76
2021/01/10 00:44:48;;;;;;;5.63;5.25;;;-3.50;99.90;;;;;;5075057;28;20228;-76
2021/01/10 00:47:17;;;;;;;6.20;5.70;;;-3.50;99.90;;;;;;5093065;28;20229;-76
2021/01/10 00:49:45;;;;;;;5.40;5.10;;;-3.40;99.90;;;;;;5070353;28;20340;-76
2021/01/10 00:52:12;;;;;;;6.47;5.97;;;-3.40;99.90;;;;;;5073722;28;20776;-76
2021/01/10 00:54:38;;;;;;;5.72;5.32;;;-3.40;99.90;;;;;;5076668;27;20304;-77
2021/01/10 00:57:05;;;;;;;5.70;5.28;;;-3.40;99.90;;;;;;5093122;28;20217;-76
2021/01/10 00:59:32;;;;;;;6.65;6.15;;;-3.30;99.90;;;;;;5091673;28;20221;-76
2021/01/10 01:01:59;;;;;;;5.55;5.07;;;-3.30;99.90;;;;;;5097725;28;20225;-76
2021/01/10 01:04:26;;;;;;;5.47;5.18;;;-3.40;99.90;;;;;;5095486;28;20577;-76
2021/01/10 01:06:52;;;;;;;6.45;5.90;;;-3.40;99.90;;;;;;5093548;27;20220;-76
2021/01/10 01:09:19;;;;;;;6.03;5.63;;;-3.50;99.90;;;;;;5106417;27;20212;-77
2021/01/10 01:11:46;;;;;;;6.43;5.90;;;-3.40;99.90;;;;;;5100597;27;20904;-76
2021/01/10 01:14:13;;;;;;;5.88;5.47;;;-3.40;99.90;;;;;;5109972;27;20219;-76
2021/01/10 01:16:41;;;;;;;6.00;5.60;;;-3.40;99.90;;;;;;5110559;27;20229;-76
2021/01/10 01:19:08;;;;;;;5.97;5.55;;;-3.40;99.90;;;;;;5106322;27;20217;-77
2021/01/10 01:21:35;;;;;;;5.22;4.82;;;-3.40;99.90;;;;;;5104743;27;20293;-76
2021/01/10 01:24:02;;;;;;;5.53;5.15;;;-3.30;99.90;;;;;;5106982;27;20216;-76
2021/01/10 01:26:29;;;;;;;6.07;5.63;;;-3.30;99.90;;;;;;5110556;27;20224;-77
2021/01/10 01:28:56;;;;;;;5.97;5.57;;;-3.30;99.90;;;;;;5103486;27;20232;-76
2021/01/10 01:31:24;;;;;;;5.78;5.28;;;-3.30;99.90;;;;;;5112365;27;20227;-76
2021/01/10 01:33:51;;;;;;;6.43;5.70;;;-3.30;99.90;;;;;;5110081;27;20208;-76
2021/01/10 01:36:19;;;;;;;5.65;5.25;;;-3.40;99.90;;;;;;5107806;27;20220;-77
2021/01/10 01:38:47;;;;;;;6.20;5.80;;;-3.40;99.90;;;;;;5107459;27;20212;-77
2021/01/10 01:41:13;;;;;;;6.45;5.95;;;-3.40;99.90;;;;;;5115664;27;20233;-77
2021/01/10 01:43:41;;;;;;;6.80;6.30;;;-3.40;99.90;;;;;;5110616;27;20223;-77
2021/01/10 01:46:09;;;;;;;6.15;5.68;;;-3.40;99.90;;;;;;5110059;27;20224;-77
2021/01/10 01:48:37;;;;;;;6.10;5.65;;;-3.40;99.90;;;;;;5105200;27;20232;-77
2021/01/10 01:51:04;;;;;;;5.85;5.45;;;-3.40;99.90;;;;;;5104912;27;20707;-77
2021/01/10 01:53:31;;;;;;;5.95;5.55;;;-3.40;99.90;;;;;;5103729;27;20644;-77
2021/01/10 01:56:02;;;;;;;6.03;5.63;;;-3.40;99.90;;;;;;5095599;27;20221;-77
2021/01/10 01:58:29;;;;;;;6.05;5.55;;;-3.40;99.90;;;;;;5096376;28;20229;-76
2021/01/10 02:00:56;;;;;;;6.07;5.57;;;-3.40;99.90;;;;;;5096666;28;20306;-76
2021/01/10 02:03:29;;;;;;;5.82;5.43;;;-3.40;99.90;;;;;;5104098;27;20232;-76
2021/01/10 02:06:00;;;;;;;5.90;5.50;;;-3.50;99.90;;;;;;5098388;27;20687;-76
2021/01/10 02:08:31;;;;;;;5.97;5.55;;;-3.50;99.90;;;;;;5100296;27;20231;-76
2021/01/10 02:11:00;;;;;;;6.18;5.75;;;-3.40;99.90;;;;;;5100987;28;20228;-76
2021/01/10 02:13:31;;;;;;;6.65;6.15;;;-3.40;99.90;;;;;;5102305;27;20710;-76
2021/01/10 02:16:00;;;;;;;6.10;5.70;;;-3.40;99.90;;;;;;5097661;27;20221;-76
2021/01/10 02:18:28;;;;;;;6.10;5.60;;;-3.30;99.90;;;;;;5098769;28;20222;-76
2021/01/10 02:21:01;;;;;;;6.38;5.97;;;-3.30;99.90;;;;;;5105689;27;20228;-76
2021/01/10 02:23:30;;;;;;;6.30;5.90;;;-3.20;99.90;;;;;;5109403;27;20223;-75
2021/01/10 02:25:58;;;;;;;6.28;5.78;;;-3.30;99.90;;;;;;5104447;27;20216;-76
2021/01/10 02:28:27;;;;;;;5.30;4.90;;;-3.20;99.90;;;;;;5103383;27;20244;-76
2021/01/10 02:30:54;;;;;;;6.15;5.65;;;-3.20;99.90;;;;;;5107487;27;20774;-75
2021/01/10 02:33:27;;;;;;;5.65;5.35;;;-3.20;99.90;;;;;;5113794;27;20220;-76
2021/01/10 02:35:55;;;;;;;6.13;5.72;;;-3.20;99.90;;;;;;5104144;27;20217;-75
2021/01/10 02:38:42;;;;;;;6.72;6.13;;;-3.30;99.90;;;;;;5123595;27;20250;-77
2021/01/10 02:41:17;;;;;;;6.30;5.80;;;-3.30;99.90;;;;;;5121237;27;20648;-76
2021/01/10 02:44:06;;;;;;;6.20;5.65;;;-3.30;99.90;;;;;;5103921;27;20221;-76
2021/01/10 02:46:35;;;;;;;6.10;5.63;;;-3.40;99.90;;;;;;5100990;27;20229;-76
2021/01/10 02:49:02;;;;;;;6.13;5.63;;;-3.40;99.90;;;;;;5100390;28;20220;-76
2021/01/10 02:51:28;;;;;;;6.57;5.97;;;-3.40;99.90;;;;;;5102034;28;20376;-76
2021/01/10 02:53:55;;;;;;;6.60;6.10;;;-3.40;99.90;;;;;;5101723;27;20252;-76
2021/01/10 02:56:22;;;;;;;6.13;5.65;;;-3.30;99.90;;;;;;5094088;28;20242;-76
2021/01/10 02:58:55;;;;;;;5.55;5.22;;;-3.30;99.90;;;;;;5101716;27;20220;-76
2021/01/10 03:01:23;;;;;;;5.70;5.30;;;-3.30;99.90;;;;;;5095918;28;20255;-77
2021/01/10 03:03:52;;;;;;;5.55;5.20;;;-3.30;99.90;;;;;;5103332;28;20510;-76
2021/01/10 03:06:19;;;;;;;5.72;5.25;;;-3.30;99.90;;;;;;5098917;28;20214;-75
2021/01/10 03:08:46;;;;;;;6.20;5.70;;;-3.30;99.90;;;;;;5098023;27;20273;-77
2021/01/10 03:11:13;;;;;;;5.68;5.28;;;-3.20;99.90;;;;;;5094254;27;20873;-76
2021/01/10 03:13:41;;;;;;;6.10;5.55;;;-3.20;99.90;;;;;;5083887;27;20797;-77
2021/01/10 03:16:08;;;;;;;6.22;5.72;;;-3.20;99.90;;;;;;5108045;27;20634;-76
2021/01/10 03:18:35;;;;;;;5.63;5.32;;;-3.20;99.90;;;;;;5109451;27;20487;-76
2021/01/10 03:21:02;;;;;;;6.03;5.53;;;-3.20;99.90;;;;;;5108180;27;20698;-76
2021/01/10 03:23:28;;;;;;;5.75;5.25;;;-3.20;99.90;;;;;;5096921;27;20225;-76
2021/01/10 03:25:55;;;;;;;6.13;5.72;;;-3.20;99.90;;;;;;5091943;27;20231;-76
2021/01/10 03:28:21;;;;;;;5.68;5.25;;;-3.30;99.90;;;;;;5110494;27;20231;-76
2021/01/10 03:30:49;;;;;;;6.03;5.63;;;-3.30;99.90;;;;;;5101713;28;20225;-76
2021/01/10 03:33:15;;;;;;;5.90;5.47;;;-3.30;99.90;;;;;;5101970;27;20241;-76
2021/01/10 03:35:42;;;;;;;7.10;6.50;;;-3.30;99.90;;;;;;5098116;28;20458;-76
2021/01/10 03:38:09;;;;;;;6.15;5.75;;;-3.30;99.90;;;;;;5093605;28;20319;-77
2021/01/10 03:40:35;;;;;;;5.95;5.53;;;-3.30;99.90;;;;;;5097297;28;20239;-77
2021/01/10 03:43:02;;;;;;;6.03;5.43;;;-3.40;99.90;;;;;;5101158;28;20232;-76
2021/01/10 03:45:28;;;;;;;5.22;4.82;;;-3.30;99.90;;;;;;5094703;28;20229;-76
2021/01/10 03:47:56;;;;;;;6.25;5.85;;;-3.30;99.90;;;;;;5085879;27;20590;-76
2021/01/10 03:50:23;;;;;;;6.20;5.70;;;-3.30;99.90;;;;;;5080907;27;20216;-76
2021/01/10 03:52:49;;;;;;;5.68;5.28;;;-3.30;99.90;;;;;;5097664;27;20227;-76
2021/01/10 03:55:16;;;;;;;5.50;5.10;;;-3.30;99.90;;;;;;5097260;28;20217;-76
2021/01/10 03:57:42;;;;;;;6.15;5.72;;;-3.30;99.90;;;;;;5098212;28;20258;-75
2021/01/10 04:00:11;;;;;;;5.03;4.63;;;-3.20;99.90;;;;;;5097614;28;20224;-75
2021/01/10 04:02:37;;;;;;;6.28;5.80;;;-3.20;99.90;;;;;;5090461;28;20718;-77
2021/01/10 04:05:06;;;;;;;6.05;5.55;;;-3.20;99.90;;;;;;5098756;28;20221;-76
2021/01/10 04:07:33;;;;;;;6.20;5.60;;;-3.20;99.90;;;;;;5093374;28;20289;-76
2021/01/10 04:09:59;;;;;;;6.30;5.80;;;-3.20;99.90;;;;;;5073090;28;20225;-76
2021/01/10 04:12:26;;;;;;;6.10;5.68;;;-3.30;99.90;;;;;;5072388;28;20229;-76
2021/01/10 04:14:55;;;;;;;5.93;5.53;;;-3.30;99.90;;;;;;5078682;28;20270;-77
2021/01/10 04:17:25;;;;;;;5.70;5.30;;;-3.30;99.90;;;;;;5081323;28;20215;-76
2021/01/10 04:19:51;;;;;;;5.80;5.30;;;-3.30;99.90;;;;;;5086684;28;20212;-77
2021/01/10 04:22:19;;;;;;;6.63;6.13;;;-3.40;99.90;;;;;;5092287;28;20236;-77
2021/01/10 04:24:46;;;;;;;6.22;5.78;;;-3.40;99.90;;;;;;5089030;28;20298;-75
2021/01/10 04:27:12;;;;;;;6.20;5.78;;;-3.50;99.90;;;;;;5092313;28;20622;-76
2021/01/10 04:29:39;;;;;;;5.78;5.35;;;-3.50;99.90;;;;;;5099158;28;20613;-76
2021/01/10 04:32:06;;;;;;;5.40;5.00;;;-3.50;99.90;;;;;;5098722;28;20229;-76
2021/01/10 04:34:33;;;;;;;5.85;5.45;;;-3.50;99.90;;;;;;5096789;28;20710;-77
2021/01/10 04:36:59;;;;;;;4.97;4.68;;;-3.40;99.90;;;;;;5092753;28;20235;-77
2021/01/10 04:39:28;;;;;;;5.40;5.10;;;-3.30;99.90;;;;;;5099582;28;20232;-76
2021/01/10 04:41:55;;;;;;;5.78;5.40;;;-3.30;99.90;;;;;;5098932;28;20637;-76
2021/01/10 04:44:23;;;;;;;5.13;4.82;;;-3.30;99.90;;;;;;5101569;28;20231;-76
2021/01/10 04:46:50;;;;;;;6.00;5.60;;;-3.30;99.90;;;;;;5102780;28;20209;-76
2021/01/10 04:49:18;;;;;;;5.68;5.22;;;-3.20;99.90;;;;;;5099664;28;20313;-76
2021/01/10 04:51:46;;;;;;;5.15;4.85;;;-3.20;99.90;;;;;;5097560;28;20224;-76
2021/01/10 04:54:14;;;;;;;5.47;5.07;;;-3.30;99.90;;;;;;5101455;27;20220;-75
2021/01/10 04:56:43;;;;;;;5.90;5.40;;;-3.30;99.90;;;;;;5097413;27;20216;-77
2021/01/10 04:59:10;;;;;;;5.28;4.97;;;-3.30;99.90;;;;;;5092541;28;20319;-76
2021/01/10 05:01:42;;;;;;;4.72;4.43;;;-3.30;99.90;;;;;;5093786;27;20221;-77
2021/01/10 05:04:08;;;;;;;5.57;5.22;;;-3.30;99.90;;;;;;5107963;27;20555;-77
2021/01/10 05:06:35;;;;;;;5.65;5.28;;;-3.30;99.90;;;;;;5108770;27;20225;-76
2021/01/10 05:09:03;;;;;;;6.00;5.60;;;-3.40;99.90;;;;;;5100432;27;20222;-75
2021/01/10 05:11:30;;;;;;;5.18;4.88;;;-3.30;99.90;;;;;;5113945;27;20260;-76
2021/01/10 05:13:57;;;;;;;5.60;5.30;;;-3.30;99.90;;;;;;5112579;27;20213;-76
2021/01/10 05:16:29;;;;;;;6.22;5.82;;;-3.30;99.90;;;;;;5114144;27;20242;-76
2021/01/10 05:18:56;;;;;;;6.35;5.97;;;-3.30;99.90;;;;;;5107257;27;20289;-77
2021/01/10 05:21:23;;;;;;;6.45;5.95;;;-3.20;99.90;;;;;;5102786;27;20232;-76
2021/01/10 05:23:51;;;;;;;5.57;5.07;;;-3.20;99.90;;;;;;5103704;27;20220;-76
2021/01/10 05:26:19;;;;;;;6.60;6.10;;;-3.30;99.90;;;;;;5104132;27;20714;-74
2021/01/10 05:28:46;;;;;;;5.38;5.07;;;-3.30;99.90;;;;;;5110725;27;20308;-76
2021/01/10 05:31:30;;;;;;;5.57;5.18;;;-3.40;99.90;;;;;;5111798;27;20762;-77
2021/01/10 05:33:57;;;;;;;6.10;5.70;;;-3.40;99.90;;;;;;5092067;27;20311;-76
2021/01/10 05:36:26;;;;;;;5.90;5.50;;;-3.40;99.90;;;;;;5075638;28;20232;-77
2021/01/10 05:38:53;;;;;;;6.30;5.85;;;-3.40;99.90;;;;;;5080615;27;20382;-77
2021/01/10 05:41:20;;;;;;;5.38;5.07;;;-3.50;99.90;;;;;;5110361;27;20224;-76
2021/01/10 05:43:58;;;;;;;5.38;4.97;;;-3.40;99.90;;;;;;5104278;27;20319;-78
2021/01/10 05:46:27;;;;;;;5.65;5.25;;;-3.40;99.90;;;;;;5107738;27;20228;-77
2021/01/10 05:48:54;;;;;;;5.72;5.22;;;-3.40;99.90;;;;;;5106933;27;20220;-77
2021/01/10 05:51:21;;;;;;;6.05;5.65;;;-3.30;99.90;;;;;;5113935;27;20236;-77
2021/01/10 05:53:48;;;;;;;5.32;5.00;;;-3.30;99.90;;;;;;5112204;27;20291;-75
2021/01/10 05:56:18;;;;;;;6.00;5.47;;;-3.30;99.90;;;;;;5107843;27;20212;-76
2021/01/10 05:58:46;;;;;;;5.13;4.82;;;-3.40;99.90;;;;;;5110514;27;20351;-77
2021/01/10 06:01:13;;;;;;;5.70;5.30;;;-3.40;99.90;;;;;;5105518;27;20228;-77
2021/01/10 06:03:41;;;;;;;5.63;5.22;;;-3.40;99.90;;;;;;5109797;27;20530;-77
2021/01/10 06:06:07;;;;;;;5.18;4.78;;;-3.40;99.90;;;;;;5116482;27;20220;-76
2021/01/10 06:08:35;;;;;;;5.55;5.15;;;-3.40;99.90;;;;;;5119758;27;20229;-77
2021/01/10 06:11:24;;;;;;;8.13;7.35;;;-3.40;99.90;;;;;;5110300;27;20224;-76
2021/01/10 06:13:56;;;;;;;7.00;6.40;;;-3.40;99.90;;;;;;5106917;27;20208;-76
2021/01/10 06:16:25;;;;;;;6.72;6.13;;;-3.60;99.90;;;;;;5109430;27;20213;-74
2021/01/10 06:18:55;;;;;;;6.80;6.32;;;-3.50;99.90;;;;;;5102483;27;20216;-76
2021/01/10 06:21:24;;;;;;;6.57;6.07;;;-3.50;99.90;;;;;;5125902;27;20215;-77
2021/01/10 06:23:53;;;;;;;6.57;6.18;;;-3.40;99.90;;;;;;5116299;27;20220;-77
2021/01/10 06:26:22;;;;;;;5.45;5.10;;;-3.40;99.90;;;;;;5107767;27;20602;-77
2021/01/10 06:28:57;;;;;;;5.07;4.78;;;-3.40;99.90;;;;;;5103024;27;20336;-76
2021/01/10 06:31:26;;;;;;;6.22;5.72;;;-3.30;99.90;;;;;;5074470;28;20289;-76
2021/01/10 06:33:58;;;;;;;5.72;5.32;;;-3.30;99.90;;;;;;5086303;28;20220;-76
2021/01/10 06:36:26;;;;;;;6.13;5.53;;;-3.30;99.90;;;;;;5075386;28;20710;-76
2021/01/10 06:38:59;;;;;;;6.88;6.20;;;-3.30;99.90;;;;;;5107137;27;20306;-76
2021/01/10 06:41:59;;;;;;;5.65;5.35;;;-3.30;99.90;;;;;;5106531;27;20225;-76
2021/01/10 06:44:25;;;;;;;5.55;5.15;;;-3.30;99.90;;;;;;5109071;27;20217;-78
2021/01/10 06:46:53;;;;;;;6.53;6.03;;;-3.30;99.90;;;;;;5104407;27;20239;-76
2021/01/10 06:49:22;;;;;;;5.88;5.45;;;-3.30;99.90;;;;;;5109555;27;20304;-77
2021/01/10 06:51:52;;;;;;;5.70;5.30;;;-3.30;99.90;;;;;;5107393;27;20286;-76
2021/01/10 06:54:19;;;;;;;6.18;5.78;;;-3.30;99.90;;;;;;5102783;27;20220;-77
2021/01/10 06:56:49;;;;;;;5.35;5.05;;;-3.30;99.90;;;;;;5107550;27;20253;-77
2021/01/10 06:59:17;;;;;;;5.50;5.20;;;-3.30;99.90;;;;;;5105094;27;20224;-76
2021/01/10 07:02:02;;;;;;;5.80;5.40;;;-3.30;99.90;;;;;;5110582;27;20228;-77
2021/01/10 07:05:03;;;;;;;5.53;5.10;;;-3.20;99.90;;;;;;5110018;27;20641;-77
2021/01/10 07:07:34;;;;;;;5.28;4.97;;;-3.20;99.90;;;;;;5013208;28;20226;-76
2021/01/10 07:10:01;;;;;;;6.20;5.70;;;-3.20;99.90;;;;;;5019028;28;20228;-76
2021/01/10 07:12:28;;;;;;;5.70;5.30;;;-3.10;99.90;;;;;;5065236;27;20698;-76
2021/01/10 07:15:15;;;;;;;6.10;5.70;;;-3.10;99.90;;;;;;5107526;27;20232;-76
2021/01/10 07:17:42;;;;;;;6.03;5.63;;;-3.00;99.90;;;;;;5103530;27;20598;-78
2021/01/10 07:20:10;;;;;;;6.15;5.75;;;-3.00;99.90;;;;;;5104818;27;20228;-77
2021/01/10 07:22:38;;;;;;;5.47;5.07;;;-3.00;99.90;;;;;;5107512;27;20225;-77
2021/01/10 07:25:36;;;;;;;5.90;5.50;;;-3.00;99.90;;;;;;5107944;27;20755;-77
2021/01/10 07:28:34;;;;;;;5.93;5.53;;;-3.10;99.90;;;;;;5099520;27;20322;-75
2021/01/10 07:31:20;;;;;;;6.28;5.88;;;-3.10;99.90;;;;;;5104815;27;20673;-77
2021/01/10 07:33:48;;;;;;;6.22;5.80;;;-3.00;99.90;;;;;;5105782;27;20215;-77
2021/01/10 07:36:16;;;;;;;6.22;5.80;;;-3.00;99.90;;;;;;5114205;27;20219;-77
2021/01/10 07:38:43;;;;;;;6.00;5.53;;;-2.90;99.90;;;;;;5107483;27;20221;-77
2021/01/10 07:41:24;;;;;;;6.40;5.90;;;-2.90;99.90;;;;;;5110245;27;20220;-77
2021/01/10 07:43:52;;;;;;;6.25;5.75;;;-2.90;99.90;;;;;;5106723;27;20224;-77
2021/01/10 07:47:01;;;;;;;6.88;6.28;;;-2.90;99.90;;;;;;5098001;27;20239;-76
2021/01/10 07:49:52;;;;;;;6.68;6.18;;;-2.90;99.90;;;;;;5101179;27;20601;-77
2021/01/10 07:52:50;;;;;;;7.50;6.70;;;-2.90;99.90;;;;;;5106334;27;20212;-77
2021/01/10 07:55:27;;;;;;;7.38;6.72;;;-2.90;99.90;;;;;;5114792;27;20224;-77
2021/01/10 07:58:14;;;;;;;5.78;5.28;;;-2.80;99.90;;;;;;5113697;27;20208;-77
2021/01/10 08:00:51;;;;;;;6.57;6.07;;;-2.70;99.90;;;;;;5099336;27;20303;-77
2021/01/10 08:03:23;;;;;;;5.78;5.28;;;-2.60;99.90;;;;;;5101115;27;20220;-76
2021/01/10 08:06:03;;;;;;;5.80;5.40;;;-2.60;99.90;;;;;;5104861;27;20741;-77
2021/01/10 08:08:45;;;;;;;5.82;5.43;;;-2.60;99.90;;;;;;5097072;27;20216;-76
2021/01/10 08:11:13;;;;;;;6.60;6.10;;;-2.60;99.90;;;;;;5107073;27;20232;-76
2021/01/10 08:13:40;;;;;;;6.53;5.93;;;-2.50;99.90;;;;;;5112460;27;20223;-76
2021/01/10 08:16:09;;;;;;;7.75;7.05;;;-2.50;99.90;;;;;;5108062;27;20242;-77
2021/01/10 08:18:38;;;;;;;7.60;6.90;;;-2.60;99.90;;;;;;5105493;27;20273;-77
2021/01/10 08:21:06;;;;;;;8.82;8.00;;;-2.60;99.90;;;;;;5114873;27;20228;-77
2021/01/10 08:23:33;;;;;;;8.73;7.93;;;-2.60;99.90;;;;;;5113038;27;20383;-77
2021/01/10 08:26:18;;;;;;;8.25;7.55;;;-2.60;99.90;;;;;;5105183;27;20881;-76
2021/01/10 08:28:46;;;;;;;9.10;8.02;;;-2.50;99.90;;;;;;5113067;27;20242;-78
2021/01/10 08:31:15;;;;;;;10.10;9.10;;;-2.40;99.90;;;;;;5115694;27;20239;-77
2021/01/10 08:33:42;;;;;;;8.85;8.00;;;-2.30;99.90;;;;;;5109902;27;20595;-77
2021/01/10 08:36:18;;;;;;;8.98;8.18;;;-2.20;99.90;;;;;;5111606;27;20280;-77
2021/01/10 08:38:50;;;;;;;8.57;7.43;;;-2.20;99.90;;;;;;5113693;27;20223;-77
2021/01/10 08:41:29;;;;;;;8.98;8.18;;;-2.10;99.90;;;;;;5099492;27;20269;-77
2021/01/10 08:43:57;;;;;;;7.85;7.10;;;-2.10;99.90;;;;;;5106755;27;20400;-75
2021/01/10 08:46:24;;;;;;;8.10;7.45;;;-2.10;99.90;;;;;;5099015;27;20710;-75
2021/01/10 08:48:50;;;;;;;8.10;7.50;;;-2.10;99.90;;;;;;5110043;27;20220;-80
2021/01/10 08:51:31;;;;;;;7.45;6.95;;;-2.00;99.90;;;;;;5095065;27;20218;-77
2021/01/10 08:53:57;;;;;;;6.45;5.97;;;-1.90;99.90;;;;;;5100634;27;20633;-76
2021/01/10 08:56:25;;;;;;;8.68;7.78;;;-1.80;99.90;;;;;;5095405;28;20213;-76
2021/01/10 08:58:56;;;;;;;7.88;7.25;;;-1.60;99.90;;;;;;5104840;27;20633;-78
2021/01/10 09:01:24;;;;;;;8.13;7.35;;;-1.60;99.90;;;;;;5101903;27;20217;-77
2021/01/10 09:04:12;;;;;;;7.57;6.88;;;-1.80;99.90;;;;;;5107956;27;20223;-77
2021/01/10 09:06:53;;;;;;;8.32;7.60;;;-2.00;99.90;;;;;;5066382;28;20217;-78
2021/01/10 09:09:25;;;;;;;8.02;7.32;;;-1.80;99.90;;;;;;5098871;28;20303;-78
2021/01/10 09:12:02;;;;;;;8.45;7.68;;;-1.80;99.90;;;;;;5101411;27;20217;-76
2021/01/10 09:14:36;;;;;;;10.73;9.38;;;-1.60;99.90;;;;;;5097396;28;20221;-78
2021/01/10 09:17:04;;;;;;;8.60;7.85;;;-1.40;99.90;;;;;;5102159;27;20225;-77
2021/01/10 09:19:34;;;;;;;7.50;6.90;;;-1.10;99.90;;;;;;5097518;28;20380;-77
2021/01/10 09:22:02;;;;;;;7.90;7.10;;;-0.90;99.90;;;;;;5096731;27;20634;-77
2021/01/10 09:24:32;;;;;;;7.38;6.78;;;-0.20;99.90;;;;;;5097655;27;20220;-78
2021/01/10 09:27:09;;;;;;;6.95;6.25;;;1.10;99.90;;;;;;5101103;28;20304;-77
2021/01/10 09:29:36;;;;;;;7.95;7.25;;;2.90;99.90;;;;;;5101563;27;20232;-78
2021/01/10 09:32:04;;;;;;;8.65;7.95;;;5.90;99.90;;;;;;5102594;28;20308;-77
2021/01/10 09:34:30;;;;;;;9.52;8.63;;;8.60;99.90;;;;;;5093976;28;20455;-77
2021/01/10 09:37:05;;;;;;;8.65;7.80;;;10.70;97.70;;;;;;5087799;27;20640;-77
2021/01/10 09:39:42;;;;;;;8.30;7.43;;;12.30;90.60;;;;;;5112613;27;20231;-77
2021/01/10 09:42:11;;;;;;;10.18;9.18;;;13.40;82.10;;;;;;5112754;27;20212;-77
2021/01/10 09:44:37;;;;;;;8.65;7.50;;;14.30;77.70;;;;;;5113095;27;20220;-77
2021/01/10 09:47:05;;;;;;;5.93;5.43;;;15.00;72.30;;;;;;5103901;27;20228;-78
2021/01/10 09:49:33;;;;;;;6.10;5.53;;;14.80;69.00;;;;;;5107147;27;20254;-78
2021/01/10 09:52:00;;;;;;;6.43;5.80;;;14.70;68.70;;;;;;5111969;27;20227;-77
2021/01/10 09:54:28;;;;;;;6.80;6.13;;;14.80;69.10;;;;;;5106642;27;20706;-78
2021/01/10 09:56:56;;;;;;;7.35;6.70;;;15.00;67.80;;;;;;5111925;27;20282;-77
2021/01/10 09:59:39;;;;;;;6.78;6.07;;;14.70;66.80;;;;;;5102447;27;20710;-78
2021/01/10 10:02:11;;;;;;;6.22;5.70;;;13.90;66.40;;;;;;5106902;27;20217;-77
2021/01/10 10:04:38;;;;;;;5.78;5.28;;;12.40;69.80;;;;;;5112442;27;20217;-77
2021/01/10 10:07:05;;;;;;;5.57;5.07;;;11.30;73.80;;;;;;5116175;27;20374;-78
2021/01/10 10:09:45;;;;;;;5.65;5.07;;;10.40;76.60;;;;;;5132764;27;20233;-78
2021/01/10 10:12:13;;;;;;;5.85;5.35;;;9.50;77.50;;;;;;5100998;27;20225;-78
2021/01/10 10:14:50;;;;;;;6.28;5.78;;;8.70;81.30;;;;;;5109310;27;20773;-78
2021/01/10 10:17:16;;;;;;;7.32;6.05;;;8.00;82.90;;;;;;5113709;27;20216;-77
2021/01/10 10:19:43;;;;;;;8.57;7.78;;;7.50;85.10;;;;;;5114778;27;20447;-78
2021/01/10 10:22:23;;;;;;;6.47;5.97;;;7.40;84.10;;;;;;5111855;27;20224;-78
2021/01/10 10:24:50;;;;;;;5.75;5.25;;;7.00;84.90;;;;;;5078195;27;20218;-78
2021/01/10 10:27:17;;;;;;;8.63;7.53;;;6.80;87.10;;;;;;5081824;28;20255;-79
2021/01/10 10:29:44;;;;;;;9.18;6.80;;;6.50;89.70;;;;;;5092587;28;20240;-78
2021/01/10 10:32:11;;;;;;;7.00;5.85;;;6.70;90.40;;;;;;5096068;28;20614;-79
2021/01/10 10:34:38;;;;;;;6.80;6.20;;;6.80;90.10;;;;;;5105295;27;20813;-78
2021/01/10 10:37:06;;;;;;;6.50;5.85;;;6.70;90.10;;;;;;5135083;27;20637;-78
2021/01/10 10:39:33;;;;;;;6.97;6.13;;;6.60;89.90;;;;;;5108350;27;20227;-78
2021/01/10 10:42:00;;;;;;;6.95;6.35;;;6.70;88.50;;;;;;5110252;27;20689;-79
2021/01/10 10:44:26;;;;;;;6.25;5.50;;;6.50;88.50;;;;;;5115962;27;20216;-80
2021/01/10 10:46:54;;;;;;;6.57;6.07;;;6.50;90.20;;;;;;5108848;27;20240;-77
2021/01/10 10:49:21;;;;;;;6.38;5.88;;;6.60;90.40;;;;;;5104088;27;20224;-77
2021/01/10 10:51:47;;;;;;;5.80;5.30;;;6.90;90.70;;;;;;5107897;27;20216;-78
2021/01/10 10:54:14;;;;;;;6.72;5.70;;;7.10;89.40;;;;;;5105185;27;20615;-75
2021/01/10 10:56:41;;;;;;;5.75;5.22;;;7.20;90.00;;;;;;5105902;27;20722;-78
2021/01/10 10:59:08;;;;;;;6.43;5.80;;;7.40;87.50;;;;;;5097100;27;20615;-78
2021/01/10 11:01:39;;;;;;;5.85;5.35;;;7.80;88.20;;;;;;5101115;28;20229;-78
2021/01/10 11:04:06;;;;;;;7.25;6.43;;;8.00;87.60;;;;;;5097118;28;20300;-78
2021/01/10 11:06:34;;;;;;;6.47;5.88;;;8.10;87.30;;;;;;5101164;28;20773;-78
2021/01/10 11:09:01;;;;;;;6.28;5.78;;;8.30;87.60;;;;;;5095478;27;20298;-78
2021/01/10 11:11:35;;;;;;;7.13;5.72;;;8.40;86.40;;;;;;5101518;27;20237;-78
2021/01/10 11:14:01;;;;;;;6.60;5.97;;;8.70;87.00;;;;;;5100733;28;20304;-78
2021/01/10 11:16:32;;;;;;;6.03;5.53;;;8.50;87.20;;;;;;5111112;27;20228;-77
2021/01/10 11:18:59;;;;;;;6.25;5.65;;;8.30;86.70;;;;;;5109331;27;20212;-78
2021/01/10 11:21:30;;;;;;;6.05;5.55;;;8.30;86.30;;;;;;5108054;27;20232;-78
2021/01/10 11:23:57;;;;;;;7.00;5.72;;;8.40;86.80;;;;;;5109109;27;20221;-78
2021/01/10 11:26:24;;;;;;;5.40;4.90;;;8.30;88.00;;;;;;5117707;27;20216;-76
2021/01/10 11:28:51;;;;;;;6.05;5.30;;;8.10;88.70;;;;;;5108427;27;20224;-81
2021/01/10 11:31:18;;;;;;;5.90;5.28;;;7.90;86.90;;;;;;5123929;27;20221;-78
2021/01/10 11:33:45;;;;;;;6.38;5.82;;;8.10;87.20;;;;;;5101041;28;20742;-79
2021/01/10 11:36:12;;;;;;;5.70;5.20;;;8.10;86.00;;;;;;5103418;28;20217;-78
2021/01/10 11:38:40;;;;;;;6.30;5.70;;;8.20;87.10;;;;;;5093946;28;20227;-77
2021/01/10 11:41:11;;;;;;;6.38;5.88;;;8.20;87.10;;;;;;5098718;28;20229;-77
2021/01/10 11:43:39;;;;;;;6.30;5.50;;;8.40;87.80;;;;;;5088830;27;20233;-79
2021/01/10 11:46:06;;;;;;;5.75;5.25;;;8.90;87.50;;;;;;5090963;28;20758;-77
2021/01/10 11:48:34;;;;;;;6.40;5.78;;;9.20;87.00;;;;;;5098018;28;20710;-78
2021/01/10 11:51:02;;;;;;;5.85;5.15;;;9.30;82.60;;;;;;5095641;27;20233;-77
2021/01/10 11:53:29;;;;;;;5.50;4.85;;;9.20;85.60;;;;;;5106199;27;20220;-79
2021/01/10 11:55:57;;;;;;;5.68;5.18;;;8.70;86.00;;;;;;5108022;27;20256;-78
2021/01/10 11:58:24;;;;;;;6.88;5.65;;;8.50;85.40;;;;;;5123067;27;20223;-76
2021/01/10 12:00:51;;;;;;;5.72;5.05;;;8.60;85.00;;;;;;5101234;27;20225;-79
2021/01/10 12:03:18;;;;;;;5.43;4.93;;;8.80;86.00;;;;;;5109859;27;20208;-78
2021/01/10 12:05:45;;;;;;;6.03;5.47;;;8.80;85.90;;;;;;5110739;27;20220;-77
2021/01/10 12:08:12;;;;;;;6.38;5.68;;;9.10;85.90;;;;;;5106730;27;20233;-76
2021/01/10 12:10:39;;;;;;;5.93;5.40;;;9.20;83.90;;;;;;5115339;27;20236;-77
2021/01/10 12:13:06;;;;;;;5.78;5.30;;;9.00;83.20;;;;;;5107158;27;20232;-78
2021/01/10 12:15:34;;;;;;;5.65;5.15;;;8.70;83.90;;;;;;5116558;27;20224;-76
2021/01/10 12:18:01;;;;;;;5.53;5.03;;;8.40;84.10;;;;;;5105928;27;20236;-76
2021/01/10 12:20:28;;;;;;;5.80;5.30;;;8.40;86.00;;;;;;5100442;27;20228;-76
2021/01/10 12:22:54;;;;;;;6.18;5.57;;;8.50;85.80;;;;;;5115408;27;20323;-79
2021/01/10 12:25:21;;;;;;;5.90;5.30;;;8.50;86.10;;;;;;5115284;27;20251;-76
2021/01/10 12:27:49;;;;;;;6.10;5.50;;;8.40;86.00;;;;;;5109650;27;20466;-76
2021/01/10 12:30:17;;;;;;;5.63;5.13;;;8.40;86.20;;;;;;5107432;27;20587;-77
2021/01/10 12:32:44;;;;;;;5.95;5.45;;;8.40;86.80;;;;;;5110385;27;20216;-76
2021/01/10 12:35:15;;;;;;;5.93;5.20;;;8.20;87.40;;;;;;5106601;27;20810;-76
2021/01/10 12:37:41;;;;;;;6.10;5.50;;;8.20;87.10;;;;;;5113749;27;20808;-76
2021/01/10 12:40:10;;;;;;;6.82;5.90;;;8.10;87.60;;;;;;5105079;27;20225;-77
2021/01/10 12:42:36;;;;;;;6.38;5.78;;;7.90;86.30;;;;;;5101878;27;20605;-75
2021/01/10 12:45:04;;;;;;;5.75;5.25;;;7.80;86.50;;;;;;5104753;27;20224;-76
2021/01/10 12:47:32;;;;;;;6.97;6.30;;;7.90;87.40;;;;;;5103297;27;20645;-75
2021/01/10 12:49:58;;;;;;;5.60;5.10;;;7.90;86.30;;;;;;5106738;27;20233;-76
2021/01/10 12:52:25;;;;;;;7.72;5.50;;;8.00;87.60;;;;;;5100938;27;20228;-78
2021/01/10 12:54:51;;;;;;;6.30;5.50;;;8.20;87.80;;;;;;5103195;27;20235;-76
2021/01/10 12:57:18;;;;;;;6.82;6.13;;;8.30;87.70;;;;;;5104323;27;20730;-75
2021/01/10 12:59:44;;;;;;;5.85;5.35;;;8.00;87.80;;;;;;5108002;27;20334;-76